createdAt,value
2022-12-15T00:00:19.532Z,13.07
2022-12-15T00:03:04.984Z,11.87
2022-12-15T00:05:50.433Z,12.63
2022-12-15T00:08:36.324Z,13.50
2022-12-15T00:11:21.804Z,13.13
2022-12-15T00:14:07.271Z,13.27
2022-12-15T00:16:52.770Z,12.00
2022-12-15T00:19:38.222Z,12.33
2022-12-15T00:22:24.668Z,13.70
2022-12-15T00:25:10.213Z,12.63
2022-12-15T00:27:55.789Z,13.37
2022-12-15T00:30:41.326Z,12.10
2022-12-15T00:33:31.018Z,11.40
2022-12-15T00:36:19.649Z,12.93
2022-12-15T00:38:47.545Z,11.63
2022-12-15T00:41:17.541Z,13.23
2022-12-15T00:43:44.969Z,14.10
2022-12-15T00:46:30.463Z,12.73
2022-12-15T00:48:57.644Z,13.43
2022-12-15T00:51:42.986Z,13.10
2022-12-15T00:54:29.254Z,12.87
2022-12-15T00:57:14.600Z,12.63
2022-12-15T00:59:59.993Z,12.67
2022-12-15T01:02:45.610Z,12.73
2022-12-15T01:05:31.215Z,12.57
2022-12-15T01:08:18.929Z,11.93
2022-12-15T01:11:04.336Z,12.80
2022-12-15T01:13:50.179Z,12.40
2022-12-15T01:16:35.744Z,12.53
2022-12-15T01:19:20.919Z,12.70
2022-12-15T01:21:49.710Z,12.47
2022-12-15T01:24:16.506Z,12.43
2022-12-15T01:26:43.204Z,12.47
2022-12-15T01:29:09.958Z,11.93
2022-12-15T01:31:36.721Z,11.73
2022-12-15T01:34:03.472Z,11.97
2022-12-15T01:36:30.312Z,12.23
2022-12-15T01:38:57.009Z,12.40
2022-12-15T01:41:24.014Z,13.23
2022-12-15T01:43:50.811Z,12.30
2022-12-15T01:46:20.030Z,11.73
2022-12-15T01:48:59.927Z,12.77
2022-12-15T01:51:35.497Z,12.73
2022-12-15T01:54:08.144Z,12.50
2022-12-15T01:56:40.085Z,12.80
2022-12-15T01:59:11.649Z,11.77
2022-12-15T02:01:38.551Z,12.40
2022-12-15T02:04:05.432Z,13.50
2022-12-15T02:06:32.222Z,12.83
2022-12-15T02:09:00.728Z,11.70
2022-12-15T02:11:55.630Z,12.00
2022-12-15T02:14:46.785Z,12.73
2022-12-15T02:17:52.393Z,12.63
2022-12-15T02:20:43.634Z,12.07
2022-12-15T02:23:47.237Z,12.47
2022-12-15T02:26:28.394Z,11.80
2022-12-15T02:29:13.421Z,12.73
2022-12-15T02:32:02.666Z,11.50
2022-12-15T02:34:56.279Z,12.33
2022-12-15T02:37:32.886Z,12.23
2022-12-15T02:39:59.941Z,11.70
2022-12-15T02:42:29.605Z,13.20
2022-12-15T02:45:08.534Z,12.57
2022-12-15T02:48:08.693Z,12.10
2022-12-15T02:50:48.860Z,13.27
2022-12-15T02:54:02.424Z,12.97
2022-12-15T02:56:34.612Z,12.37
2022-12-15T02:59:31.848Z,12.43
2022-12-15T03:02:03.601Z,12.23
2022-12-15T03:04:33.781Z,12.30
2022-12-15T03:07:04.687Z,12.93
2022-12-15T03:09:32.435Z,13.83
2022-12-15T03:11:59.533Z,12.67
2022-12-15T03:14:26.580Z,13.87
2022-12-15T03:16:54.575Z,13.00
2022-12-15T03:19:21.605Z,11.50
2022-12-15T03:21:48.349Z,11.70
2022-12-15T03:24:15.078Z,13.23
2022-12-15T03:26:42.132Z,13.40
2022-12-15T03:29:08.855Z,12.40
2022-12-15T03:31:36.074Z,13.27
2022-12-15T03:34:02.833Z,13.13
2022-12-15T03:36:29.533Z,13.07
2022-12-15T03:38:56.230Z,12.30
2022-12-15T03:41:22.945Z,12.07
2022-12-15T03:43:49.828Z,12.57
2022-12-15T03:46:17.275Z,12.50
2022-12-15T03:48:44.109Z,12.27
2022-12-15T03:51:10.967Z,12.63
2022-12-15T03:53:38.057Z,13.10
2022-12-15T03:56:04.929Z,12.20
2022-12-15T03:58:31.643Z,12.27
2022-12-15T04:00:58.460Z,11.67
2022-12-15T04:03:25.353Z,13.00
2022-12-15T04:05:52.076Z,13.13
2022-12-15T04:08:18.836Z,12.50
2022-12-15T04:10:45.638Z,13.07
2022-12-15T04:13:12.494Z,12.77
2022-12-15T04:15:40.761Z,12.20
2022-12-15T04:18:10.135Z,12.07
2022-12-15T04:20:38.513Z,12.70
2022-12-15T04:23:07.781Z,12.87
2022-12-15T04:25:53.567Z,12.13
2022-12-15T04:28:39.167Z,12.07
2022-12-15T04:31:30.644Z,13.40
2022-12-15T04:34:22.650Z,12.23
2022-12-15T04:37:09.959Z,13.10
2022-12-15T04:39:58.210Z,12.90
2022-12-15T04:42:44.178Z,12.87
2022-12-15T04:45:31.198Z,12.40
2022-12-15T04:48:17.676Z,13.17
2022-12-15T04:51:03.148Z,11.90
2022-12-15T04:53:48.287Z,12.90
2022-12-15T04:56:34.907Z,12.93
2022-12-15T04:59:20.680Z,12.30
2022-12-15T05:02:06.546Z,13.93
2022-12-15T05:04:52.449Z,12.17
2022-12-15T05:07:37.934Z,12.63
2022-12-15T05:10:24.489Z,13.67
2022-12-15T05:13:09.987Z,11.90
2022-12-15T05:15:55.645Z,12.03
2022-12-15T05:18:41.266Z,12.60
2022-12-15T05:21:26.824Z,13.17
2022-12-15T05:24:12.198Z,13.60
2022-12-15T05:26:57.562Z,13.27
2022-12-15T05:29:43.040Z,11.80
2022-12-15T05:32:09.832Z,12.47
2022-12-15T05:34:37.951Z,11.00
2022-12-15T05:37:07.296Z,13.03
2022-12-15T05:39:34.400Z,11.90
2022-12-15T05:42:01.416Z,13.53
2022-12-15T05:44:28.786Z,13.53
2022-12-15T05:46:55.731Z,12.20
2022-12-15T05:49:23.340Z,13.70
2022-12-15T05:51:50.514Z,13.03
2022-12-15T05:54:19.049Z,12.07
2022-12-15T05:56:46.897Z,11.20
2022-12-15T05:59:19.076Z,13.90
2022-12-15T06:01:46.057Z,12.10
2022-12-15T06:04:13.377Z,13.00
2022-12-15T06:06:41.143Z,12.10
2022-12-15T06:09:08.392Z,15.10
2022-12-15T06:11:35.254Z,14.23
2022-12-15T06:14:01.949Z,13.83
2022-12-15T06:16:29.240Z,12.47
2022-12-15T06:18:59.226Z,12.63
2022-12-15T06:21:29.081Z,12.50
2022-12-15T06:23:56.838Z,12.83
2022-12-15T06:26:25.515Z,12.07
2022-12-15T06:28:54.784Z,13.30
2022-12-15T06:31:23.012Z,14.10
2022-12-15T06:33:55.988Z,12.47
2022-12-15T06:36:26.476Z,12.33
2022-12-15T06:38:53.152Z,12.17
2022-12-15T06:41:21.600Z,11.93
2022-12-15T06:43:53.170Z,11.90
2022-12-15T06:46:20.477Z,12.30
2022-12-15T06:48:47.976Z,12.40
2022-12-15T06:51:17.388Z,11.93
2022-12-15T06:53:54.260Z,12.90
2022-12-15T06:56:33.124Z,17.17
2022-12-15T06:59:02.133Z,15.20
2022-12-15T07:01:29.844Z,16.00
2022-12-15T07:04:00.205Z,19.73
2022-12-15T07:06:28.663Z,19.37
2022-12-15T07:08:56.825Z,18.30
2022-12-15T07:11:23.854Z,19.23
2022-12-15T07:13:52.988Z,21.03
2022-12-15T07:16:21.464Z,22.93
2022-12-15T07:18:48.662Z,24.73
2022-12-15T07:21:15.856Z,28.10
2022-12-15T07:23:58.551Z,22.10
2022-12-15T07:26:26.276Z,23.30
2022-12-15T07:28:54.038Z,23.60
2022-12-15T07:31:21.778Z,22.73
2022-12-15T07:33:48.792Z,26.73
2022-12-15T07:36:15.905Z,25.20
2022-12-15T07:38:42.863Z,23.93
2022-12-15T07:41:10.343Z,24.70
2022-12-15T07:43:38.128Z,26.30
2022-12-15T07:46:05.851Z,24.90
2022-12-15T07:48:33.240Z,22.50
2022-12-15T07:51:11.086Z,23.60
2022-12-15T07:53:42.313Z,21.33
2022-12-15T07:56:10.055Z,23.20
2022-12-15T07:58:38.323Z,25.70
2022-12-15T08:01:08.591Z,21.07
2022-12-15T08:03:37.301Z,21.13
2022-12-15T08:06:05.806Z,20.67
2022-12-15T08:08:34.091Z,20.43
2022-12-15T08:11:09.277Z,19.53
2022-12-15T08:16:23.591Z,18.13
2022-12-15T08:18:50.396Z,19.07
2022-12-15T08:21:17.724Z,16.87
2022-12-15T08:23:45.118Z,19.83
2022-12-15T08:26:14.530Z,18.13
2022-12-15T08:28:41.881Z,20.47
2022-12-15T08:31:12.303Z,18.00
2022-12-15T08:33:39.772Z,17.03
2022-12-15T08:36:09.245Z,16.47
2022-12-15T08:38:38.636Z,18.97
2022-12-15T08:41:13.962Z,16.43
2022-12-15T08:43:47.496Z,21.13
2022-12-15T08:46:26.296Z,16.43
2022-12-15T08:48:53.510Z,18.80
2022-12-15T08:51:22.445Z,18.20
2022-12-15T08:53:49.555Z,18.77
2022-12-15T08:56:19.034Z,14.23
2022-12-15T08:58:47.271Z,15.60
2022-12-15T09:01:23.956Z,17.00
2022-12-15T09:03:56.567Z,16.23
2022-12-15T09:06:29.204Z,15.00
2022-12-15T09:08:57.497Z,14.00
2022-12-15T09:11:25.553Z,14.90
2022-12-15T09:13:52.298Z,14.10
2022-12-15T09:16:19.863Z,14.07
2022-12-15T09:18:52.932Z,13.53
2022-12-15T09:21:23.045Z,13.93
2022-12-15T09:23:51.968Z,15.40
2022-12-15T09:26:20.757Z,15.23
2022-12-15T09:28:50.317Z,17.20
2022-12-15T09:31:21.926Z,30.50
2022-12-15T09:33:50.277Z,29.67
2022-12-15T09:36:17.287Z,30.60
2022-12-15T09:38:44.650Z,33.83
2022-12-15T09:41:14.798Z,29.30
2022-12-15T09:43:47.973Z,33.17
2022-12-15T09:46:31.374Z,33.60
2022-12-15T09:48:59.593Z,32.40
2022-12-15T09:51:34.354Z,35.17
2022-12-15T09:54:01.829Z,36.87
2022-12-15T09:56:39.935Z,38.20
2022-12-15T09:59:16.236Z,31.87
2022-12-15T10:01:43.327Z,31.87
2022-12-15T10:04:21.576Z,34.17
2022-12-15T10:06:55.415Z,29.93
2022-12-15T10:09:28.728Z,33.67
2022-12-15T10:11:58.070Z,31.93
2022-12-15T10:14:31.533Z,33.90
2022-12-15T10:16:58.599Z,35.17
2022-12-15T10:19:43.024Z,32.63
2022-12-15T10:22:14.866Z,32.80
2022-12-15T10:27:49.210Z,32.97
2022-12-15T10:30:16.622Z,30.47
2022-12-15T10:32:51.614Z,37.70
2022-12-15T10:35:21.832Z,36.50
2022-12-15T10:37:50.072Z,35.57
2022-12-15T10:40:21.473Z,36.57
2022-12-15T10:42:50.035Z,33.10
2022-12-15T10:45:40.275Z,28.50
2022-12-15T10:48:18.193Z,26.40
2022-12-15T10:50:45.301Z,24.53
2022-12-15T10:53:36.246Z,24.10
2022-12-15T10:56:07.237Z,19.63
2022-12-15T10:58:45.567Z,23.20
2022-12-15T11:01:19.518Z,18.93
2022-12-15T11:03:50.512Z,18.60
2022-12-15T11:06:19.905Z,23.93
2022-12-15T11:08:47.497Z,17.20
2022-12-15T11:11:52.640Z,17.53
2022-12-15T11:14:19.794Z,20.17
2022-12-15T11:16:48.773Z,25.30
2022-12-15T11:19:21.271Z,17.20
2022-12-15T11:21:50.423Z,21.10
2022-12-15T11:24:30.235Z,17.50
2022-12-15T11:27:15.817Z,20.23
2022-12-15T11:29:50.034Z,17.47
2022-12-15T11:32:19.153Z,18.10
2022-12-15T11:34:47.065Z,15.47
2022-12-15T11:37:34.525Z,17.73
2022-12-15T11:40:22.244Z,19.47
2022-12-15T11:42:55.905Z,20.80
2022-12-15T11:45:41.825Z,13.80
2022-12-15T11:48:12.011Z,15.07
2022-12-15T11:50:51.039Z,17.50
2022-12-15T11:53:24.520Z,15.13
2022-12-15T11:55:56.621Z,14.23
2022-12-15T11:58:26.710Z,15.27
2022-12-15T12:01:06.278Z,15.63
2022-12-15T12:03:36.155Z,15.07
2022-12-15T12:06:03.482Z,14.00
2022-12-15T12:08:51.279Z,16.10
2022-12-15T12:11:29.674Z,15.53
2022-12-15T12:14:11.467Z,14.70
2022-12-15T12:16:57.515Z,15.07
2022-12-15T12:19:28.293Z,15.10
2022-12-15T12:22:00.459Z,15.23
2022-12-15T12:24:27.673Z,15.10
2022-12-15T12:27:02.435Z,14.93
2022-12-15T12:29:33.513Z,15.83
2022-12-15T12:32:05.217Z,13.80
2022-12-15T12:34:35.551Z,14.67
2022-12-15T12:37:14.574Z,14.27
2022-12-15T12:39:41.913Z,15.73
2022-12-15T12:42:21.681Z,14.13
2022-12-15T12:44:48.887Z,14.20
2022-12-15T12:47:24.215Z,14.17
2022-12-15T12:49:55.073Z,13.00
2022-12-15T12:52:24.925Z,15.07
2022-12-15T12:54:56.286Z,13.80
2022-12-15T12:57:35.611Z,13.80
2022-12-15T13:00:08.750Z,14.40
2022-12-15T13:02:38.010Z,14.13
2022-12-15T13:05:25.512Z,14.73
2022-12-15T13:07:58.378Z,13.47
2022-12-15T13:10:26.022Z,12.80
2022-12-15T13:12:53.977Z,14.07
2022-12-15T13:15:27.689Z,12.70
2022-12-15T13:17:57.711Z,13.60
2022-12-15T13:20:27.187Z,13.63
2022-12-15T13:22:54.432Z,13.83
2022-12-15T13:25:34.130Z,15.40
2022-12-15T13:28:02.146Z,13.53
2022-12-15T13:30:29.336Z,13.37
2022-12-15T13:33:14.352Z,15.40
2022-12-15T13:35:42.818Z,14.27
2022-12-15T13:38:17.679Z,15.10
2022-12-15T13:40:47.564Z,15.10
2022-12-15T13:43:31.963Z,14.37
2022-12-15T13:46:10.699Z,15.07
2022-12-15T13:48:42.189Z,13.87
2022-12-15T13:51:20.380Z,15.53
2022-12-15T13:53:51.488Z,15.83
2022-12-15T13:56:25.401Z,13.10
2022-12-15T13:59:03.247Z,13.43
2022-12-15T14:01:33.222Z,14.57
2022-12-15T14:04:16.658Z,15.20
2022-12-15T14:06:54.423Z,14.53
2022-12-15T14:09:32.173Z,14.13
2022-12-15T14:11:59.765Z,13.40
2022-12-15T14:14:28.688Z,16.23
2022-12-15T14:16:58.384Z,14.10
2022-12-15T14:19:25.922Z,14.43
2022-12-15T14:21:57.260Z,14.47
2022-12-15T14:24:38.992Z,14.80
2022-12-15T14:27:06.857Z,14.43
2022-12-15T14:29:34.371Z,15.33
2022-12-15T14:32:01.534Z,14.33
2022-12-15T14:34:29.127Z,16.03
2022-12-15T14:36:57.637Z,15.20
2022-12-15T14:39:25.973Z,15.27
2022-12-15T14:41:54.691Z,14.87
2022-12-15T14:44:36.177Z,15.63
2022-12-15T14:47:06.418Z,15.17
2022-12-15T14:49:38.161Z,15.27
2022-12-15T14:52:06.230Z,14.47
2022-12-15T14:54:37.636Z,14.10
2022-12-15T14:57:21.162Z,16.03
2022-12-15T14:59:49.164Z,14.50
2022-12-15T15:02:25.092Z,14.40
2022-12-15T15:03:09.888Z,32.70
2022-12-15T15:05:07.718Z,14.53
2022-12-15T15:07:36.216Z,14.93
2022-12-15T15:10:04.256Z,14.87
2022-12-15T15:12:44.119Z,16.03
2022-12-15T15:15:18.303Z,15.20
2022-12-15T15:17:48.844Z,14.67
2022-12-15T15:20:19.315Z,16.20
2022-12-15T15:22:47.240Z,15.07
2022-12-15T15:25:39.835Z,15.13
2022-12-15T15:28:19.639Z,15.27
2022-12-15T15:30:48.746Z,14.27
2022-12-15T15:33:16.121Z,16.30
2022-12-15T15:35:44.199Z,15.07
2022-12-15T15:38:20.539Z,15.90
2022-12-15T15:40:51.266Z,16.30
2022-12-15T15:43:19.234Z,16.37
2022-12-15T15:45:46.913Z,15.70
2022-12-15T15:48:16.918Z,16.93
2022-12-15T15:50:44.855Z,16.77
2022-12-15T15:53:15.678Z,16.10
2022-12-15T15:55:43.546Z,15.97
2022-12-15T15:58:14.025Z,17.27
2022-12-15T16:00:41.228Z,15.57
2022-12-15T16:03:08.968Z,15.83
2022-12-15T16:05:36.423Z,16.73
2022-12-15T16:08:04.155Z,16.20
2022-12-15T16:10:31.946Z,16.13
2022-12-15T16:13:03.214Z,15.90
2022-12-15T16:15:34.292Z,16.93
2022-12-15T16:18:01.419Z,16.37
2022-12-15T16:20:29.602Z,17.23
2022-12-15T16:23:04.348Z,16.53
2022-12-15T16:25:46.740Z,17.00
2022-12-15T16:28:18.981Z,18.37
2022-12-15T16:30:46.240Z,16.53
2022-12-15T16:33:13.605Z,18.03
2022-12-15T16:35:41.709Z,17.93
2022-12-15T16:38:22.655Z,16.00
2022-12-15T16:40:49.803Z,17.63
2022-12-15T16:43:18.714Z,18.40
2022-12-15T16:45:47.190Z,17.27
2022-12-15T16:48:14.554Z,16.03
2022-12-15T16:50:43.599Z,18.70
2022-12-15T16:53:15.444Z,19.20
2022-12-15T16:55:42.818Z,18.30
2022-12-15T16:58:11.972Z,19.67
2022-12-15T17:00:39.051Z,17.60
2022-12-15T17:03:07.223Z,18.23
2022-12-15T17:05:36.479Z,17.77
2022-12-15T17:08:06.053Z,19.40
2022-12-15T17:10:33.619Z,17.50
2022-12-15T17:13:08.123Z,17.50
2022-12-15T17:15:36.593Z,18.83
2022-12-15T17:18:05.171Z,19.60
2022-12-15T17:20:32.812Z,18.00
2022-12-15T17:23:01.700Z,17.97
2022-12-15T17:26:09.183Z,19.83
2022-12-15T17:28:20.352Z,18.70
2022-12-15T17:30:48.343Z,19.27
2022-12-15T17:33:19.928Z,18.87
2022-12-15T17:35:49.301Z,19.40
2022-12-15T17:38:18.363Z,17.90
2022-12-15T17:40:45.899Z,17.93
2022-12-15T17:43:14.264Z,18.47
2022-12-15T17:45:41.490Z,19.40
2022-12-15T17:48:08.583Z,18.13
2022-12-15T17:50:36.140Z,18.47
2022-12-15T17:53:05.452Z,20.90
2022-12-15T17:55:35.420Z,19.80
2022-12-15T17:58:03.430Z,17.60
2022-12-15T18:00:31.810Z,19.30
2022-12-15T18:02:59.979Z,18.63
2022-12-15T18:05:28.561Z,19.87
2022-12-15T18:07:56.907Z,18.90
2022-12-15T18:10:24.101Z,18.93
2022-12-15T18:12:51.232Z,17.60
2022-12-15T18:15:23.138Z,19.10
2022-12-15T18:17:50.512Z,19.00
2022-12-15T18:20:18.737Z,20.20
2022-12-15T18:22:46.607Z,20.73
2022-12-15T18:25:25.934Z,19.27
2022-12-15T18:27:53.996Z,19.60
2022-12-15T18:30:22.792Z,18.40
2022-12-15T18:32:51.610Z,18.57
2022-12-15T18:35:22.471Z,18.73
2022-12-15T18:37:50.561Z,19.37
2022-12-15T18:40:18.357Z,18.87
2022-12-15T18:42:46.942Z,18.90
2022-12-15T18:45:16.713Z,18.00
2022-12-15T18:47:43.837Z,20.37
2022-12-15T18:50:14.492Z,19.23
2022-12-15T18:52:41.606Z,19.60
2022-12-15T18:55:16.388Z,19.80
2022-12-15T18:57:43.492Z,17.40
2022-12-15T19:00:10.577Z,18.30
2022-12-15T19:02:37.816Z,18.67
2022-12-15T19:05:06.163Z,18.70
2022-12-15T19:07:33.710Z,18.87
2022-12-15T19:10:00.994Z,20.93
2022-12-15T19:12:28.071Z,23.30
2022-12-15T19:14:55.435Z,23.57
2022-12-15T19:17:42.645Z,26.93
2022-12-15T19:20:36.008Z,27.13
2022-12-15T19:23:03.294Z,29.43
2022-12-15T19:25:31.100Z,32.60
2022-12-15T19:27:59.847Z,30.67
2022-12-15T19:30:35.878Z,32.60
2022-12-15T19:33:07.588Z,28.17
2022-12-15T19:35:34.754Z,30.23
2022-12-15T19:38:02.115Z,30.60
2022-12-15T19:40:31.216Z,34.07
2022-12-15T19:42:58.898Z,29.87
2022-12-15T19:45:27.575Z,31.97
2022-12-15T19:47:55.045Z,31.63
2022-12-15T19:50:23.547Z,30.43
2022-12-15T19:52:56.953Z,28.07
2022-12-15T19:55:32.782Z,27.70
2022-12-15T19:58:00.834Z,26.00
2022-12-15T20:00:28.004Z,28.13
2022-12-15T20:02:56.651Z,26.13
2022-12-15T20:05:25.407Z,29.00
2022-12-15T20:07:53.403Z,25.93
2022-12-15T20:10:29.464Z,25.87
2022-12-15T20:12:59.219Z,24.33
2022-12-15T20:15:26.614Z,25.20
2022-12-15T20:17:56.470Z,33.90
2022-12-15T20:20:24.523Z,26.13
2022-12-15T20:22:54.361Z,24.27
2022-12-15T20:25:24.628Z,24.87
2022-12-15T20:27:52.055Z,23.20
2022-12-15T20:30:23.557Z,25.53
2022-12-15T20:32:50.668Z,23.90
2022-12-15T20:35:19.026Z,24.73
2022-12-15T20:37:46.944Z,23.83
2022-12-15T20:40:24.118Z,21.67
2022-12-15T20:42:51.980Z,23.07
2022-12-15T20:45:20.966Z,25.70
2022-12-15T20:47:49.148Z,23.13
2022-12-15T20:50:22.461Z,23.27
2022-12-15T20:52:49.713Z,24.10
2022-12-15T20:55:18.885Z,22.80
2022-12-15T20:57:45.980Z,21.40
2022-12-15T21:00:13.365Z,22.37
2022-12-15T21:02:41.268Z,22.60
2022-12-15T21:05:08.573Z,21.73
2022-12-15T21:07:35.722Z,22.63
2022-12-15T21:10:02.898Z,22.57
2022-12-15T21:12:29.988Z,20.13
2022-12-15T21:14:57.045Z,22.07
2022-12-15T21:17:25.735Z,19.70
2022-12-15T21:19:53.335Z,23.73
2022-12-15T21:22:23.452Z,21.37
2022-12-15T21:24:51.988Z,22.60
2022-12-15T21:27:19.199Z,20.40
2022-12-15T21:29:51.990Z,23.30
2022-12-15T21:32:19.842Z,20.10
2022-12-15T21:34:46.952Z,21.63
2022-12-15T21:37:43.394Z,20.90
2022-12-15T21:40:16.931Z,20.67
2022-12-15T21:42:44.055Z,20.60
2022-12-15T21:45:14.657Z,20.87
2022-12-15T21:48:00.290Z,20.30
2022-12-15T21:50:27.663Z,19.57
2022-12-15T21:52:54.747Z,21.10
2022-12-15T21:55:23.560Z,21.40
2022-12-15T21:57:51.686Z,19.43
2022-12-15T22:00:19.371Z,21.97
2022-12-15T22:02:47.321Z,19.83
2022-12-15T22:05:19.309Z,20.43
2022-12-15T22:07:46.574Z,19.07
2022-12-15T22:10:13.760Z,19.50
2022-12-15T22:12:41.508Z,19.60
2022-12-15T22:15:16.055Z,19.07
2022-12-15T22:17:44.028Z,20.27
2022-12-15T22:20:18.340Z,19.67
2022-12-15T22:22:45.727Z,20.23
2022-12-15T22:25:30.828Z,20.63
2022-12-15T22:27:57.931Z,20.97
2022-12-15T22:30:25.919Z,21.40
2022-12-15T22:32:53.784Z,20.50
2022-12-15T22:35:24.277Z,20.93
2022-12-15T22:37:53.594Z,18.77
2022-12-15T22:40:21.306Z,19.83
2022-12-15T22:42:50.694Z,18.03
2022-12-15T22:45:19.884Z,20.67
2022-12-15T22:47:47.698Z,22.23
2022-12-15T22:50:16.567Z,22.23
2022-12-15T22:52:45.576Z,19.60
2022-12-15T22:55:19.964Z,27.33
2022-12-15T22:57:56.216Z,24.90
2022-12-15T23:00:23.393Z,23.17
2022-12-15T23:02:50.547Z,24.13
2022-12-15T23:05:19.446Z,25.27
2022-12-15T23:07:46.727Z,26.77
2022-12-15T23:10:33.656Z,28.50
2022-12-15T23:13:00.743Z,24.50
2022-12-15T23:15:48.310Z,25.77
2022-12-15T23:18:15.455Z,25.37
2022-12-15T23:20:42.614Z,27.43
2022-12-15T23:23:09.978Z,28.10
2022-12-15T23:25:37.149Z,28.50
2022-12-15T23:28:05.285Z,25.17
2022-12-15T23:30:32.591Z,26.97
2022-12-15T23:32:59.869Z,27.57
2022-12-15T23:35:26.983Z,27.40
2022-12-15T23:37:54.198Z,24.20
2022-12-15T23:40:22.870Z,24.00
2022-12-15T23:42:50.551Z,31.00
2022-12-15T23:45:18.076Z,25.80
2022-12-15T23:47:45.328Z,26.80
2022-12-15T23:50:12.505Z,27.67
2022-12-15T23:52:39.613Z,27.97
2022-12-15T23:55:10.156Z,26.87
2022-12-15T23:57:38.220Z,27.10
